メインページ
METAR-TAF:

METAR-TAF

空港 :

秋田空港

秋田, 日本

緯度: 39-37N, 経度: 140-13E, 海抜: 93m

現時点の気象観測

当レポートは1時間10分前の11:00(UTC)に作成
北/北西の風 3kt
気温 13°C
湿度 82%
気圧 1013 hPa
視程10km以上
高度3000ftの雲はほとんどない
高度9000ftの千切れ雲あり
千切れ雲あり

METAR: RJSK 161100Z 34003KT 9999 FEW030 BKN090 BKN/// 13/10 Q1013

時間: 21:10 (12:10 UTC)

予報

当レポートは1時間0分前の11:10(UTC)に作成
予報は16日の 12時(UTC)から 17日の 18時(UTC)まで有効
南東の風 4kt
視程10km以上
高度2000ftの雲はほとんどない
高度4000ftの雲は散在している
17日の 00時(UTC)から 17日の 03時(UTC)まで徐々に
西/北西の風 8kt
17日の 09時(UTC)から 17日の 12時(UTC)まで徐々に
南東の風 4kt

TAF: RJSK 161110Z 1612/1718 14004KT 9999 FEW020 SCT040 BECMG 1700/1703 30008KT BECMG 1709/1712 14004KT

4,000以上の空港の気象観測と天気予報(METAR報とTAF報)

利用可能な観測所は地図上に黄色い丸と赤い丸で示す。

丸の上にカーソルを重ねると観測所名を参照できる。

次にクリックすると気象観測と天気予報を参照できる。

マップの切り替え:黒色「×」印の緑ボタンをクリックして拡大、「-」印の緑ボタンをクリックして縮小、緑色の三角印をクリックして隣りの地図に切り替え


METAR-TAF: